createdAt,value
2022-09-06T00:02:25.174Z,7.40
2022-09-06T00:05:13.107Z,7.88
2022-09-06T00:08:02.425Z,11.48
2022-09-06T00:10:49.691Z,8.23
2022-09-06T00:13:37.228Z,11.00
2022-09-06T00:16:30.104Z,9.65
2022-09-06T00:19:17.459Z,10.43
2022-09-06T00:22:04.509Z,6.38
2022-09-06T00:24:53.112Z,9.15
2022-09-06T00:27:40.124Z,5.72
2022-09-06T00:30:28.347Z,8.88
2022-09-06T00:33:15.554Z,6.75
2022-09-06T00:36:02.942Z,6.45
2022-09-06T00:38:50.266Z,6.80
2022-09-06T00:41:38.947Z,8.88
2022-09-06T00:44:26.009Z,8.05
2022-09-06T00:47:13.096Z,8.63
2022-09-06T00:50:02.426Z,8.95
2022-09-06T00:52:53.249Z,11.07
2022-09-06T00:55:43.200Z,6.13
2022-09-06T00:58:31.690Z,7.22
2022-09-06T01:01:18.870Z,7.22
2022-09-06T01:04:06.104Z,8.65
2022-09-06T01:07:01.202Z,9.07
2022-09-06T01:10:05.915Z,8.73
2022-09-06T01:13:09.905Z,6.75
2022-09-06T01:16:08.989Z,8.73
2022-09-06T01:19:27.653Z,7.45
2022-09-06T01:22:40.435Z,6.18
2022-09-06T01:25:40.194Z,8.40
2022-09-06T01:28:34.415Z,9.95
2022-09-06T01:31:29.086Z,7.78
2022-09-06T01:34:25.868Z,7.82
2022-09-06T01:37:16.017Z,6.97
2022-09-06T01:40:03.314Z,5.35
2022-09-06T01:42:51.880Z,8.50
2022-09-06T01:45:52.565Z,7.90
2022-09-06T01:49:02.997Z,6.47
2022-09-06T01:52:06.361Z,8.55
2022-09-06T01:55:08.341Z,8.40
2022-09-06T01:58:11.115Z,8.98
2022-09-06T02:01:06.449Z,7.70
2022-09-06T02:04:00.452Z,7.05
2022-09-06T02:06:51.632Z,6.60
2022-09-06T02:09:42.254Z,8.07
2022-09-06T02:12:33.788Z,6.00
2022-09-06T02:15:24.915Z,5.88
2022-09-06T02:18:16.738Z,9.93
2022-09-06T02:21:05.409Z,7.18
2022-09-06T02:23:54.232Z,7.88
2022-09-06T02:26:44.820Z,5.80
2022-09-06T02:29:32.350Z,8.88
2022-09-06T02:32:23.577Z,9.63
2022-09-06T02:35:16.722Z,5.95
2022-09-06T02:38:03.813Z,6.30
2022-09-06T02:40:53.280Z,6.07
2022-09-06T02:43:40.896Z,7.93
2022-09-06T02:46:27.793Z,6.05
2022-09-06T02:49:14.415Z,7.45
2022-09-06T02:52:03.057Z,8.45
2022-09-06T02:54:50.361Z,8.40
2022-09-06T02:57:37.439Z,9.05
2022-09-06T03:00:24.390Z,9.07
2022-09-06T03:03:12.156Z,8.10
2022-09-06T03:05:58.989Z,6.47
2022-09-06T03:08:47.156Z,11.18
2022-09-06T03:11:34.317Z,10.05
2022-09-06T03:14:21.107Z,9.73
2022-09-06T03:17:08.065Z,11.35
2022-09-06T03:19:55.385Z,13.38
2022-09-06T03:22:42.675Z,9.35
2022-09-06T03:25:30.891Z,16.25
2022-09-06T03:28:19.126Z,12.23
2022-09-06T03:31:06.561Z,13.45
2022-09-06T03:33:53.895Z,10.75
2022-09-06T03:36:41.213Z,9.50
2022-09-06T03:39:28.452Z,6.80
2022-09-06T03:42:16.816Z,7.43
2022-09-06T03:45:04.068Z,11.13
2022-09-06T03:47:51.418Z,6.38
2022-09-06T03:50:38.679Z,7.70
2022-09-06T03:53:27.295Z,11.77
2022-09-06T03:56:14.469Z,10.82
2022-09-06T03:59:03.119Z,7.43
2022-09-06T04:01:50.279Z,8.25
2022-09-06T04:04:37.570Z,10.25
2022-09-06T04:07:24.942Z,6.80
2022-09-06T04:10:12.437Z,15.98
2022-09-06T04:12:59.296Z,18.33
2022-09-06T04:15:48.813Z,14.35
2022-09-06T04:18:35.925Z,11.18
2022-09-06T04:21:23.055Z,11.90
2022-09-06T04:24:10.512Z,18.50
2022-09-06T04:26:57.753Z,14.57
2022-09-06T04:29:44.563Z,17.38
2022-09-06T04:32:33.205Z,11.30
2022-09-06T04:35:20.108Z,14.48
2022-09-06T04:38:06.996Z,7.95
2022-09-06T04:40:55.609Z,10.57
2022-09-06T04:43:43.206Z,11.48
2022-09-06T04:46:31.311Z,9.93
2022-09-06T04:49:19.907Z,10.60
2022-09-06T04:52:07.420Z,9.63
2022-09-06T04:54:54.531Z,11.55
2022-09-06T04:57:45.139Z,7.80
2022-09-06T05:03:22.450Z,10.70
2022-09-06T05:06:13.011Z,11.63
2022-09-06T05:09:01.023Z,16.45
2022-09-06T05:11:48.073Z,12.30
2022-09-06T05:14:35.047Z,16.48
2022-09-06T05:17:21.923Z,15.88
2022-09-06T05:20:10.605Z,20.20
2022-09-06T05:22:59.203Z,18.40
2022-09-06T05:25:46.234Z,16.13
2022-09-06T05:28:33.144Z,15.82
2022-09-06T05:31:29.298Z,15.02
2022-09-06T05:34:16.481Z,15.45
2022-09-06T05:37:03.374Z,11.98
2022-09-06T05:39:51.914Z,11.40
2022-09-06T05:42:38.810Z,10.05
2022-09-06T05:45:25.854Z,10.55
2022-09-06T05:48:12.709Z,7.53
2022-09-06T05:51:02.504Z,10.45
2022-09-06T05:53:49.743Z,9.25
2022-09-06T05:56:38.401Z,8.75
2022-09-06T05:59:25.331Z,8.70
2022-09-06T06:02:12.701Z,7.97
2022-09-06T06:04:59.935Z,9.48
2022-09-06T06:07:47.347Z,8.70
2022-09-06T06:10:38.510Z,12.35
2022-09-06T06:13:28.476Z,9.80
2022-09-06T06:16:17.602Z,10.18
2022-09-06T06:19:04.717Z,11.60
2022-09-06T06:21:51.710Z,11.27
2022-09-06T06:24:39.980Z,9.45
2022-09-06T06:27:27.349Z,6.10
2022-09-06T06:30:18.417Z,6.18
2022-09-06T06:33:05.818Z,10.25
2022-09-06T06:36:02.052Z,7.97
2022-09-06T06:38:50.143Z,9.20
2022-09-06T06:41:37.909Z,5.57
2022-09-06T06:44:43.905Z,8.15
2022-09-06T06:47:32.327Z,7.53
2022-09-06T06:50:19.657Z,6.15
2022-09-06T06:53:06.918Z,9.02
2022-09-06T06:55:54.185Z,8.13
2022-09-06T06:58:41.056Z,5.50
2022-09-06T07:01:31.451Z,8.48
2022-09-06T07:04:20.070Z,9.23
2022-09-06T07:13:21.916Z,8.18
2022-09-06T07:16:11.643Z,5.78
2022-09-06T07:18:59.022Z,5.03
2022-09-06T07:21:47.610Z,6.10
2022-09-06T07:24:34.520Z,6.50
2022-09-06T07:30:30.419Z,7.50
2022-09-06T07:33:19.008Z,4.93
2022-09-06T07:36:09.136Z,5.90
2022-09-06T07:38:57.837Z,5.53
2022-09-06T07:41:44.935Z,4.18
2022-09-06T07:44:32.315Z,7.05
2022-09-06T07:53:35.610Z,4.60
2022-09-06T07:56:25.428Z,5.40
2022-09-06T07:59:12.721Z,4.63
2022-09-06T08:01:59.735Z,5.65
2022-09-06T08:04:51.087Z,8.50
2022-09-06T08:07:39.055Z,12.70
2022-09-06T08:10:27.395Z,6.35
2022-09-06T08:13:16.014Z,4.15
2022-09-06T08:16:05.366Z,7.30
2022-09-06T08:18:53.927Z,4.30
2022-09-06T08:21:41.778Z,4.53
2022-09-06T08:24:29.067Z,7.32
2022-09-06T08:27:16.131Z,10.70
2022-09-06T08:30:05.064Z,6.03
2022-09-06T08:32:52.518Z,3.95
2022-09-06T08:35:39.849Z,3.42
2022-09-06T08:38:27.771Z,3.05
2022-09-06T08:41:26.215Z,3.17
2022-09-06T08:47:24.571Z,3.83
2022-09-06T08:50:12.936Z,4.88
2022-09-06T08:53:23.555Z,5.20
2022-09-06T08:56:16.785Z,6.13
2022-09-06T08:59:08.000Z,4.95
2022-09-06T09:02:04.706Z,8.13
2022-09-06T09:04:57.751Z,5.90
2022-09-06T09:07:49.071Z,3.40
2022-09-06T09:10:44.230Z,5.47
2022-09-06T09:13:36.307Z,5.40
2022-09-06T09:16:25.176Z,8.80
2022-09-06T09:19:12.478Z,4.93
2022-09-06T09:22:02.498Z,4.88
2022-09-06T09:24:52.103Z,6.95
2022-09-06T09:27:40.795Z,3.88
2022-09-06T09:33:37.013Z,3.65
2022-09-06T09:36:24.135Z,4.60
2022-09-06T09:39:13.463Z,4.55
2022-09-06T09:42:00.655Z,4.97
2022-09-06T09:44:48.378Z,3.60
2022-09-06T09:47:35.788Z,2.15
2022-09-06T09:50:27.440Z,4.10
2022-09-06T09:53:18.048Z,2.60
2022-09-06T09:56:06.882Z,5.50
2022-09-06T09:58:56.929Z,3.25
2022-09-06T10:01:44.359Z,4.57
2022-09-06T10:07:29.322Z,5.50
2022-09-06T10:10:23.989Z,3.55
2022-09-06T10:13:20.573Z,3.22
2022-09-06T10:16:08.909Z,3.20
2022-09-06T10:18:55.775Z,3.85
2022-09-06T10:21:42.796Z,4.95
2022-09-06T10:24:39.872Z,2.53
2022-09-06T10:27:28.914Z,3.42
2022-09-06T10:30:17.759Z,2.83
2022-09-06T10:33:10.348Z,3.40
2022-09-06T10:35:59.997Z,4.65
2022-09-06T10:38:55.444Z,3.05
2022-09-06T10:41:57.582Z,4.53
2022-09-06T10:44:59.474Z,4.90
2022-09-06T10:47:57.689Z,4.97
2022-09-06T10:50:51.996Z,3.70
2022-09-06T10:53:48.451Z,6.05
2022-09-06T10:56:43.727Z,4.93
2022-09-06T11:02:36.001Z,3.50
2022-09-06T11:05:44.400Z,4.70
2022-09-06T11:08:47.381Z,4.57
2022-09-06T11:11:42.705Z,9.95
2022-09-06T11:14:30.719Z,10.98
2022-09-06T11:17:25.181Z,6.63
2022-09-06T11:20:18.381Z,9.05
2022-09-06T11:23:29.335Z,4.38
2022-09-06T11:26:34.718Z,6.47
2022-09-06T11:29:24.263Z,6.82
2022-09-06T11:32:30.603Z,8.40
2022-09-06T11:35:28.153Z,4.75
2022-09-06T11:38:26.138Z,6.10
2022-09-06T11:41:18.575Z,6.78
2022-09-06T11:44:07.189Z,5.95
2022-09-06T11:47:02.638Z,5.88
2022-09-06T11:49:49.567Z,6.18
2022-09-06T11:52:59.882Z,7.80
2022-09-06T11:55:50.479Z,7.32
2022-09-06T11:58:50.449Z,6.60
2022-09-06T12:01:41.034Z,10.43
2022-09-06T12:05:09.656Z,8.00
2022-09-06T12:08:15.897Z,8.05
2022-09-06T12:11:03.126Z,6.78
2022-09-06T12:13:54.415Z,9.20
2022-09-06T12:17:11.572Z,9.40
2022-09-06T12:20:07.447Z,7.57
2022-09-06T12:22:55.650Z,9.13
2022-09-06T12:25:58.654Z,8.82
2022-09-06T12:28:51.542Z,7.25
2022-09-06T12:31:43.510Z,7.35
2022-09-06T12:34:32.778Z,8.82
2022-09-06T12:37:34.322Z,10.00
2022-09-06T12:40:23.223Z,10.10
2022-09-06T12:43:13.394Z,11.35
2022-09-06T12:46:01.086Z,10.18
2022-09-06T12:49:04.071Z,12.00
2022-09-06T12:51:51.380Z,9.32
2022-09-06T12:54:46.596Z,10.50
2022-09-06T12:57:33.474Z,10.68
2022-09-06T13:00:21.938Z,8.98
2022-09-06T13:03:20.852Z,5.88
2022-09-06T13:06:11.178Z,11.00
2022-09-06T13:09:00.560Z,8.80
2022-09-06T13:11:52.442Z,8.52
2022-09-06T13:14:39.735Z,9.87
2022-09-06T13:17:29.729Z,11.43
2022-09-06T13:20:26.483Z,6.90
2022-09-06T13:23:22.316Z,6.55
2022-09-06T13:26:09.594Z,9.93
2022-09-06T13:28:56.867Z,7.95
2022-09-06T13:31:47.680Z,6.07
2022-09-06T13:34:35.619Z,7.72
2022-09-06T13:37:22.925Z,10.55
2022-09-06T13:40:59.828Z,10.27
2022-09-06T13:43:49.045Z,9.57
2022-09-06T13:46:37.312Z,13.02
2022-09-06T13:49:25.656Z,11.98
2022-09-06T13:52:12.961Z,7.72
2022-09-06T13:55:00.330Z,16.20
2022-09-06T13:57:47.291Z,13.60
2022-09-06T14:00:36.003Z,11.38
2022-09-06T14:03:26.749Z,11.27
2022-09-06T14:06:13.766Z,9.27
2022-09-06T14:09:07.270Z,14.95
2022-09-06T14:11:55.454Z,9.60
2022-09-06T14:14:44.349Z,9.43
2022-09-06T14:17:33.218Z,12.35
2022-09-06T14:20:20.308Z,12.57
2022-09-06T14:23:07.601Z,9.25
2022-09-06T14:25:57.880Z,8.70
2022-09-06T14:28:44.990Z,7.57
2022-09-06T14:31:32.934Z,7.72
2022-09-06T14:34:22.304Z,12.75
2022-09-06T14:37:13.307Z,8.82
2022-09-06T14:40:00.781Z,9.55
2022-09-06T14:42:50.539Z,10.73
2022-09-06T14:45:38.284Z,8.30
2022-09-06T14:48:30.473Z,10.82
2022-09-06T14:51:22.509Z,13.65
2022-09-06T14:54:12.688Z,7.30
2022-09-06T14:56:59.987Z,8.50
2022-09-06T14:59:47.378Z,8.27
2022-09-06T15:02:35.320Z,12.15
2022-09-06T15:05:22.522Z,12.27
2022-09-06T15:08:11.970Z,10.32
2022-09-06T15:10:59.714Z,11.60
2022-09-06T15:13:47.480Z,7.60
2022-09-06T15:16:36.158Z,5.25
2022-09-06T15:19:24.483Z,9.18
2022-09-06T15:22:11.625Z,7.55
2022-09-06T15:24:59.977Z,12.02
2022-09-06T15:27:47.145Z,13.18
2022-09-06T15:30:34.608Z,12.23
2022-09-06T15:33:21.597Z,10.20
2022-09-06T15:36:10.498Z,8.85
2022-09-06T15:39:01.249Z,14.52
2022-09-06T15:41:51.890Z,11.05
2022-09-06T15:44:39.060Z,11.25
2022-09-06T15:47:26.051Z,13.07
2022-09-06T15:50:13.122Z,9.77
2022-09-06T15:53:00.584Z,8.30
2022-09-06T15:56:01.443Z,10.07
2022-09-06T15:58:50.078Z,10.00
2022-09-06T16:01:42.812Z,11.00
2022-09-06T16:04:30.542Z,6.65
2022-09-06T16:07:18.645Z,8.93
2022-09-06T16:10:06.504Z,11.52
2022-09-06T16:12:54.612Z,10.82
2022-09-06T16:15:43.361Z,12.25
2022-09-06T16:18:33.097Z,8.52
2022-09-06T16:21:24.121Z,9.07
2022-09-06T16:24:13.639Z,7.80
2022-09-06T16:27:00.689Z,9.52
2022-09-06T16:29:47.583Z,13.25
2022-09-06T16:32:36.031Z,8.82
2022-09-06T16:35:23.152Z,12.27
2022-09-06T16:38:11.074Z,7.93
2022-09-06T16:40:58.310Z,11.52
2022-09-06T16:43:45.956Z,6.65
2022-09-06T16:46:33.295Z,7.45
2022-09-06T16:49:21.677Z,7.63
2022-09-06T16:52:09.007Z,11.73
2022-09-06T16:54:56.159Z,7.45
2022-09-06T16:57:43.467Z,7.85
2022-09-06T17:00:31.312Z,10.35
2022-09-06T17:03:18.710Z,8.15
2022-09-06T17:06:08.851Z,10.82
2022-09-06T17:08:58.591Z,6.90
2022-09-06T17:11:47.158Z,7.80
2022-09-06T17:14:34.452Z,11.57
2022-09-06T17:17:20.931Z,9.52
2022-09-06T17:20:10.112Z,11.98
2022-09-06T17:22:58.573Z,6.05
2022-09-06T17:25:45.735Z,15.45
2022-09-06T17:28:35.050Z,12.10
2022-09-06T17:31:25.701Z,9.88
2022-09-06T17:34:13.327Z,8.63
2022-09-06T17:37:00.448Z,10.32
2022-09-06T17:39:49.506Z,8.00
2022-09-06T17:42:37.447Z,11.52
2022-09-06T17:45:24.860Z,21.23
2022-09-06T17:48:12.299Z,20.95
2022-09-06T17:51:07.575Z,15.18
2022-09-06T17:53:54.583Z,15.15
2022-09-06T17:56:43.397Z,13.38
2022-09-06T17:59:35.041Z,15.95
2022-09-06T18:02:23.480Z,11.73
2022-09-06T18:05:11.192Z,10.10
2022-09-06T18:07:58.301Z,14.63
2022-09-06T18:10:45.554Z,15.98
2022-09-06T18:13:33.859Z,13.43
2022-09-06T18:16:21.196Z,12.90
2022-09-06T18:19:09.655Z,9.57
2022-09-06T18:21:57.595Z,17.50
2022-09-06T18:24:44.815Z,14.57
2022-09-06T18:27:33.840Z,14.35
2022-09-06T18:30:22.114Z,14.98
2022-09-06T18:33:11.982Z,12.25
2022-09-06T18:35:59.152Z,12.73
2022-09-06T18:38:47.283Z,17.73
2022-09-06T18:41:49.108Z,20.13
2022-09-06T18:44:35.385Z,17.13
2022-09-06T18:47:22.988Z,12.48
2022-09-06T18:50:10.587Z,19.05
2022-09-06T18:52:58.496Z,13.25
2022-09-06T18:55:45.919Z,14.23
2022-09-06T18:58:33.420Z,12.68
2022-09-06T19:01:21.149Z,12.30
2022-09-06T19:04:10.152Z,15.98
2022-09-06T19:06:57.762Z,10.40
2022-09-06T19:09:44.998Z,13.23
2022-09-06T19:12:32.311Z,19.83
2022-09-06T19:15:19.721Z,14.98
2022-09-06T19:18:07.237Z,17.02
2022-09-06T19:21:00.187Z,17.65
2022-09-06T19:23:48.816Z,12.80
2022-09-06T19:26:38.224Z,15.48
2022-09-06T19:29:25.458Z,15.20
2022-09-06T19:32:12.835Z,15.75
2022-09-06T19:35:01.702Z,11.20
2022-09-06T19:37:50.469Z,12.88
2022-09-06T19:40:38.023Z,13.07
2022-09-06T19:43:25.343Z,12.23
2022-09-06T19:46:13.409Z,13.57
2022-09-06T19:49:00.631Z,13.73
2022-09-06T19:51:48.967Z,13.48
2022-09-06T19:54:37.738Z,11.57
2022-09-06T19:57:24.703Z,8.85
2022-09-06T20:00:13.016Z,12.90
2022-09-06T20:03:00.293Z,10.23
2022-09-06T20:05:47.901Z,10.70
2022-09-06T20:08:35.562Z,10.50
2022-09-06T20:11:25.851Z,15.05
2022-09-06T20:14:13.425Z,11.35
2022-09-06T20:17:16.779Z,11.70
2022-09-06T20:20:08.889Z,10.63
2022-09-06T20:22:55.807Z,10.73
2022-09-06T20:25:42.868Z,8.15
2022-09-06T20:28:32.261Z,11.63
2022-09-06T20:31:20.973Z,10.43
2022-09-06T20:34:08.398Z,11.63
2022-09-06T20:36:55.426Z,14.98
2022-09-06T20:39:42.776Z,11.27
2022-09-06T20:42:30.090Z,12.50
2022-09-06T20:45:19.320Z,10.27
2022-09-06T20:48:06.668Z,9.85
2022-09-06T20:50:58.526Z,12.02
2022-09-06T20:53:46.507Z,10.90
2022-09-06T20:56:36.793Z,10.25
2022-09-06T20:59:24.272Z,10.75
2022-09-06T21:02:12.878Z,10.40
2022-09-06T21:05:00.940Z,11.63
2022-09-06T21:07:48.093Z,9.40
2022-09-06T21:10:35.846Z,11.07
2022-09-06T21:13:22.923Z,10.57
2022-09-06T21:16:10.692Z,9.05
2022-09-06T21:19:00.798Z,9.43
2022-09-06T21:21:48.349Z,9.95
2022-09-06T21:24:35.728Z,13.07
2022-09-06T21:27:22.466Z,10.32
2022-09-06T21:30:10.869Z,10.82
2022-09-06T21:32:57.789Z,8.45
2022-09-06T21:35:46.323Z,9.30
2022-09-06T21:38:33.876Z,10.63
2022-09-06T21:41:21.547Z,7.47
2022-09-06T21:44:09.321Z,9.02
2022-09-06T21:46:56.999Z,11.13
2022-09-06T21:49:43.947Z,5.97
2022-09-06T21:52:32.608Z,9.23
2022-09-06T21:55:19.718Z,11.48
2022-09-06T21:58:07.337Z,8.95
2022-09-06T22:00:58.278Z,9.85
2022-09-06T22:03:46.361Z,8.52
2022-09-06T22:06:35.378Z,6.38
2022-09-06T22:09:23.598Z,8.25
2022-09-06T22:12:10.810Z,9.30
2022-09-06T22:14:58.205Z,8.60
2022-09-06T22:17:45.001Z,8.35
2022-09-06T22:20:32.175Z,11.15
2022-09-06T22:23:19.218Z,9.63
2022-09-06T22:26:11.305Z,10.70
2022-09-06T22:29:00.645Z,7.03
2022-09-06T22:31:47.682Z,8.63
2022-09-06T22:34:34.777Z,14.93
2022-09-06T22:37:21.966Z,10.60
2022-09-06T22:40:10.379Z,11.98
2022-09-06T22:42:58.890Z,23.33
2022-09-06T22:45:51.711Z,12.90
2022-09-06T22:48:40.138Z,7.50
2022-09-06T22:51:27.347Z,17.05
2022-09-06T22:54:14.870Z,8.05
2022-09-06T22:57:02.048Z,14.70
2022-09-06T22:59:50.717Z,10.93
2022-09-06T23:02:37.946Z,8.23
2022-09-06T23:05:25.192Z,14.05
2022-09-06T23:08:12.136Z,11.88
2022-09-06T23:10:59.486Z,9.77
2022-09-06T23:13:47.445Z,13.55
2022-09-06T23:16:36.063Z,12.05
2022-09-06T23:19:23.120Z,8.73
2022-09-06T23:22:11.980Z,13.82
2022-09-06T23:24:59.048Z,14.50
2022-09-06T23:27:46.301Z,11.25
2022-09-06T23:30:33.912Z,8.90
2022-09-06T23:33:22.460Z,10.90
2022-09-06T23:36:11.799Z,12.00
2022-09-06T23:39:00.080Z,8.82
2022-09-06T23:41:47.313Z,11.02
2022-09-06T23:44:34.973Z,10.07
2022-09-06T23:47:22.350Z,12.38
2022-09-06T23:50:11.304Z,14.95
2022-09-06T23:52:58.316Z,10.52
2022-09-06T23:55:45.804Z,8.98
2022-09-06T23:58:33.139Z,9.93
